sensor_id;sensor_type;location;lat;lon;timestamp;P1;durP1;ratioP1;P2;durP2;ratioP2
2874;SDS011;1445;52.600;13.328;2023-06-22T00:01:27;2.85;;;2.05;;
2874;SDS011;1445;52.600;13.328;2023-06-22T00:03:53;2.65;;;2.45;;
2874;SDS011;1445;52.600;13.328;2023-06-22T00:06:18;3.58;;;2.40;;
2874;SDS011;1445;52.600;13.328;2023-06-22T00:08:44;4.07;;;2.33;;
2874;SDS011;1445;52.600;13.328;2023-06-22T00:11:09;3.25;;;2.55;;
2874;SDS011;1445;52.600;13.328;2023-06-22T00:13:35;3.17;;;2.88;;
2874;SDS011;1445;52.600;13.328;2023-06-22T00:16:01;6.00;;;3.45;;
2874;SDS011;1445;52.600;13.328;2023-06-22T00:18:27;2.22;;;2.03;;
2874;SDS011;1445;52.600;13.328;2023-06-22T00:20:56;3.38;;;3.05;;
2874;SDS011;1445;52.600;13.328;2023-06-22T00:23:22;3.20;;;2.88;;
2874;SDS011;1445;52.600;13.328;2023-06-22T00:25:49;4.43;;;2.55;;
2874;SDS011;1445;52.600;13.328;2023-06-22T00:28:15;2.85;;;1.88;;
2874;SDS011;1445;52.600;13.328;2023-06-22T00:30:40;5.53;;;3.22;;
2874;SDS011;1445;52.600;13.328;2023-06-22T00:33:06;4.63;;;3.17;;
2874;SDS011;1445;52.600;13.328;2023-06-22T00:35:32;2.78;;;2.00;;
2874;SDS011;1445;52.600;13.328;2023-06-22T00:37:59;3.45;;;2.55;;
2874;SDS011;1445;52.600;13.328;2023-06-22T00:40:32;4.20;;;2.80;;
2874;SDS011;1445;52.600;13.328;2023-06-22T00:42:58;3.63;;;2.45;;
2874;SDS011;1445;52.600;13.328;2023-06-22T00:45:24;5.78;;;3.28;;
2874;SDS011;1445;52.600;13.328;2023-06-22T00:47:51;4.22;;;3.17;;
2874;SDS011;1445;52.600;13.328;2023-06-22T00:50:18;2.78;;;1.98;;
2874;SDS011;1445;52.600;13.328;2023-06-22T00:52:56;3.47;;;2.17;;
2874;SDS011;1445;52.600;13.328;2023-06-22T00:55:23;5.38;;;2.85;;
2874;SDS011;1445;52.600;13.328;2023-06-22T00:57:51;2.50;;;2.30;;
2874;SDS011;1445;52.600;13.328;2023-06-22T01:00:20;3.95;;;2.70;;
2874;SDS011;1445;52.600;13.328;2023-06-22T01:02:47;4.47;;;3.20;;
2874;SDS011;1445;52.600;13.328;2023-06-22T01:05:17;3.13;;;2.75;;
2874;SDS011;1445;52.600;13.328;2023-06-22T01:12:55;4.13;;;2.75;;
2874;SDS011;1445;52.600;13.328;2023-06-22T01:15:35;2.67;;;2.30;;
2874;SDS011;1445;52.600;13.328;2023-06-22T01:18:05;3.83;;;2.55;;
2874;SDS011;1445;52.600;13.328;2023-06-22T01:20:34;2.42;;;2.05;;
2874;SDS011;1445;52.600;13.328;2023-06-22T01:26:09;4.22;;;3.08;;
2874;SDS011;1445;52.600;13.328;2023-06-22T01:28:41;3.00;;;2.75;;
2874;SDS011;1445;52.600;13.328;2023-06-22T01:31:08;2.53;;;1.75;;
2874;SDS011;1445;52.600;13.328;2023-06-22T01:33:37;3.85;;;3.10;;
2874;SDS011;1445;52.600;13.328;2023-06-22T01:36:04;3.15;;;2.53;;
2874;SDS011;1445;52.600;13.328;2023-06-22T01:38:31;8.65;;;2.28;;
2874;SDS011;1445;52.600;13.328;2023-06-22T01:40:58;3.20;;;2.60;;
2874;SDS011;1445;52.600;13.328;2023-06-22T01:43:26;4.60;;;2.88;;
2874;SDS011;1445;52.600;13.328;2023-06-22T01:45:56;7.55;;;3.13;;
2874;SDS011;1445;52.600;13.328;2023-06-22T01:48:23;7.28;;;2.83;;
2874;SDS011;1445;52.600;13.328;2023-06-22T01:50:51;3.45;;;2.88;;
2874;SDS011;1445;52.600;13.328;2023-06-22T01:53:17;4.82;;;2.78;;
2874;SDS011;1445;52.600;13.328;2023-06-22T01:55:43;4.93;;;2.65;;
2874;SDS011;1445;52.600;13.328;2023-06-22T01:58:08;3.20;;;2.67;;
2874;SDS011;1445;52.600;13.328;2023-06-22T02:00:36;3.10;;;2.80;;
2874;SDS011;1445;52.600;13.328;2023-06-22T02:03:19;2.25;;;2.05;;
2874;SDS011;1445;52.600;13.328;2023-06-22T02:06:04;3.35;;;2.25;;
2874;SDS011;1445;52.600;13.328;2023-06-22T02:08:45;3.53;;;2.22;;
2874;SDS011;1445;52.600;13.328;2023-06-22T02:11:14;3.33;;;2.95;;
2874;SDS011;1445;52.600;13.328;2023-06-22T02:13:41;2.97;;;2.17;;
2874;SDS011;1445;52.600;13.328;2023-06-22T02:16:11;6.20;;;2.97;;
2874;SDS011;1445;52.600;13.328;2023-06-22T02:18:38;9.68;;;3.80;;
2874;SDS011;1445;52.600;13.328;2023-06-22T02:21:05;4.00;;;2.50;;
2874;SDS011;1445;52.600;13.328;2023-06-22T02:23:32;3.28;;;2.80;;
2874;SDS011;1445;52.600;13.328;2023-06-22T02:26:01;2.72;;;2.20;;
2874;SDS011;1445;52.600;13.328;2023-06-22T02:28:28;3.95;;;2.42;;
2874;SDS011;1445;52.600;13.328;2023-06-22T02:30:53;2.58;;;2.20;;
2874;SDS011;1445;52.600;13.328;2023-06-22T02:33:19;3.58;;;2.53;;
2874;SDS011;1445;52.600;13.328;2023-06-22T02:35:45;2.33;;;2.10;;
2874;SDS011;1445;52.600;13.328;2023-06-22T02:38:14;2.75;;;2.55;;
2874;SDS011;1445;52.600;13.328;2023-06-22T02:40:40;3.10;;;1.88;;
2874;SDS011;1445;52.600;13.328;2023-06-22T02:43:06;3.95;;;2.85;;
2874;SDS011;1445;52.600;13.328;2023-06-22T02:45:31;4.97;;;2.53;;
2874;SDS011;1445;52.600;13.328;2023-06-22T02:47:57;3.80;;;2.50;;
2874;SDS011;1445;52.600;13.328;2023-06-22T02:50:23;4.55;;;2.70;;
2874;SDS011;1445;52.600;13.328;2023-06-22T02:52:49;3.95;;;2.90;;
2874;SDS011;1445;52.600;13.328;2023-06-22T02:55:14;3.42;;;2.03;;
2874;SDS011;1445;52.600;13.328;2023-06-22T02:57:40;2.83;;;2.15;;
2874;SDS011;1445;52.600;13.328;2023-06-22T03:00:09;2.42;;;2.03;;
2874;SDS011;1445;52.600;13.328;2023-06-22T03:02:42;1.55;;;1.45;;
2874;SDS011;1445;52.600;13.328;2023-06-22T03:05:09;3.25;;;2.63;;
2874;SDS011;1445;52.600;13.328;2023-06-22T03:07:41;4.07;;;2.42;;
2874;SDS011;1445;52.600;13.328;2023-06-22T03:10:08;4.10;;;2.35;;
2874;SDS011;1445;52.600;13.328;2023-06-22T03:12:37;2.90;;;2.20;;
2874;SDS011;1445;52.600;13.328;2023-06-22T03:15:10;3.50;;;1.77;;
2874;SDS011;1445;52.600;13.328;2023-06-22T03:17:37;2.47;;;2.20;;
2874;SDS011;1445;52.600;13.328;2023-06-22T03:20:04;4.03;;;2.72;;
2874;SDS011;1445;52.600;13.328;2023-06-22T03:22:37;3.38;;;2.70;;
2874;SDS011;1445;52.600;13.328;2023-06-22T03:25:03;4.30;;;2.13;;
2874;SDS011;1445;52.600;13.328;2023-06-22T03:27:29;3.38;;;2.65;;
2874;SDS011;1445;52.600;13.328;2023-06-22T03:29:56;2.95;;;2.38;;
2874;SDS011;1445;52.600;13.328;2023-06-22T03:32:22;3.17;;;2.42;;
2874;SDS011;1445;52.600;13.328;2023-06-22T03:34:48;4.97;;;3.25;;
2874;SDS011;1445;52.600;13.328;2023-06-22T03:37:14;2.90;;;2.15;;
2874;SDS011;1445;52.600;13.328;2023-06-22T03:39:40;6.25;;;2.45;;
2874;SDS011;1445;52.600;13.328;2023-06-22T03:42:06;2.55;;;2.05;;
2874;SDS011;1445;52.600;13.328;2023-06-22T03:44:32;3.53;;;3.20;;
2874;SDS011;1445;52.600;13.328;2023-06-22T03:46:57;5.97;;;2.67;;
2874;SDS011;1445;52.600;13.328;2023-06-22T03:49:23;3.97;;;2.65;;
2874;SDS011;1445;52.600;13.328;2023-06-22T03:51:49;2.42;;;2.10;;
2874;SDS011;1445;52.600;13.328;2023-06-22T03:54:14;5.25;;;3.75;;
2874;SDS011;1445;52.600;13.328;2023-06-22T03:56:40;6.00;;;3.35;;
2874;SDS011;1445;52.600;13.328;2023-06-22T03:59:05;4.43;;;3.08;;
2874;SDS011;1445;52.600;13.328;2023-06-22T04:01:31;4.32;;;3.55;;
2874;SDS011;1445;52.600;13.328;2023-06-22T04:03:56;2.35;;;2.15;;
2874;SDS011;1445;52.600;13.328;2023-06-22T04:06:22;2.70;;;2.10;;
2874;SDS011;1445;52.600;13.328;2023-06-22T04:08:47;3.85;;;2.38;;
2874;SDS011;1445;52.600;13.328;2023-06-22T04:11:19;3.83;;;2.47;;
2874;SDS011;1445;52.600;13.328;2023-06-22T04:13:44;5.22;;;2.53;;
2874;SDS011;1445;52.600;13.328;2023-06-22T04:16:10;3.10;;;2.20;;
2874;SDS011;1445;52.600;13.328;2023-06-22T04:18:36;5.10;;;2.35;;
2874;SDS011;1445;52.600;13.328;2023-06-22T04:21:02;4.80;;;3.20;;
2874;SDS011;1445;52.600;13.328;2023-06-22T04:23:27;4.00;;;2.67;;
2874;SDS011;1445;52.600;13.328;2023-06-22T04:25:53;2.80;;;2.15;;
2874;SDS011;1445;52.600;13.328;2023-06-22T04:28:18;3.30;;;2.45;;
2874;SDS011;1445;52.600;13.328;2023-06-22T04:30:44;3.63;;;2.92;;
2874;SDS011;1445;52.600;13.328;2023-06-22T04:33:13;6.60;;;2.45;;
2874;SDS011;1445;52.600;13.328;2023-06-22T04:35:39;2.15;;;1.95;;
2874;SDS011;1445;52.600;13.328;2023-06-22T04:38:08;4.10;;;2.33;;
2874;SDS011;1445;52.600;13.328;2023-06-22T04:40:33;3.72;;;2.47;;
2874;SDS011;1445;52.600;13.328;2023-06-22T04:42:59;2.20;;;1.73;;
2874;SDS011;1445;52.600;13.328;2023-06-22T04:45:27;1.60;;;1.50;;
2874;SDS011;1445;52.600;13.328;2023-06-22T04:47:54;2.35;;;2.15;;
2874;SDS011;1445;52.600;13.328;2023-06-22T04:50:20;2.17;;;1.98;;
2874;SDS011;1445;52.600;13.328;2023-06-22T04:52:47;2.38;;;1.75;;
2874;SDS011;1445;52.600;13.328;2023-06-22T04:55:13;2.10;;;1.85;;
2874;SDS011;1445;52.600;13.328;2023-06-22T04:57:46;3.95;;;2.13;;
2874;SDS011;1445;52.600;13.328;2023-06-22T05:00:16;2.85;;;2.28;;
2874;SDS011;1445;52.600;13.328;2023-06-22T05:02:48;4.63;;;2.17;;
2874;SDS011;1445;52.600;13.328;2023-06-22T05:05:14;5.47;;;2.53;;
2874;SDS011;1445;52.600;13.328;2023-06-22T05:07:46;2.28;;;1.85;;
2874;SDS011;1445;52.600;13.328;2023-06-22T05:10:18;3.20;;;2.08;;
2874;SDS011;1445;52.600;13.328;2023-06-22T05:12:45;2.13;;;1.92;;
2874;SDS011;1445;52.600;13.328;2023-06-22T05:15:11;1.70;;;1.17;;
2874;SDS011;1445;52.600;13.328;2023-06-22T05:17:37;3.05;;;1.83;;
2874;SDS011;1445;52.600;13.328;2023-06-22T05:20:11;4.00;;;1.90;;
2874;SDS011;1445;52.600;13.328;2023-06-22T05:22:38;2.33;;;1.92;;
2874;SDS011;1445;52.600;13.328;2023-06-22T05:25:05;2.33;;;1.67;;
2874;SDS011;1445;52.600;13.328;2023-06-22T05:27:33;2.15;;;1.48;;
2874;SDS011;1445;52.600;13.328;2023-06-22T05:29:58;1.05;;;0.82;;
2874;SDS011;1445;52.600;13.328;2023-06-22T05:32:24;1.98;;;1.08;;
2874;SDS011;1445;52.600;13.328;2023-06-22T05:34:49;1.48;;;1.38;;
2874;SDS011;1445;52.600;13.328;2023-06-22T05:37:15;1.83;;;1.30;;
2874;SDS011;1445;52.600;13.328;2023-06-22T05:39:40;10.30;;;1.48;;
2874;SDS011;1445;52.600;13.328;2023-06-22T05:42:07;3.67;;;0.73;;
2874;SDS011;1445;52.600;13.328;2023-06-22T05:44:33;1.48;;;1.38;;
2874;SDS011;1445;52.600;13.328;2023-06-22T05:46:58;2.90;;;1.05;;
2874;SDS011;1445;52.600;13.328;2023-06-22T05:49:24;1.70;;;1.58;;
2874;SDS011;1445;52.600;13.328;2023-06-22T05:51:55;3.38;;;1.75;;
2874;SDS011;1445;52.600;13.328;2023-06-22T05:54:22;0.90;;;0.85;;
2874;SDS011;1445;52.600;13.328;2023-06-22T05:56:47;4.97;;;1.67;;
2874;SDS011;1445;52.600;13.328;2023-06-22T05:59:16;2.15;;;1.95;;
2874;SDS011;1445;52.600;13.328;2023-06-22T06:01:41;1.52;;;0.93;;
2874;SDS011;1445;52.600;13.328;2023-06-22T06:04:07;1.88;;;1.10;;
2874;SDS011;1445;52.600;13.328;2023-06-22T06:06:35;0.95;;;0.82;;
2874;SDS011;1445;52.600;13.328;2023-06-22T06:09:03;0.85;;;0.63;;
2874;SDS011;1445;52.600;13.328;2023-06-22T06:11:29;0.82;;;0.82;;
2874;SDS011;1445;52.600;13.328;2023-06-22T06:13:55;0.70;;;0.60;;
2874;SDS011;1445;52.600;13.328;2023-06-22T06:16:21;0.68;;;0.68;;
2874;SDS011;1445;52.600;13.328;2023-06-22T06:18:47;0.90;;;0.90;;
2874;SDS011;1445;52.600;13.328;2023-06-22T06:21:15;1.33;;;0.80;;
2874;SDS011;1445;52.600;13.328;2023-06-22T06:23:41;1.35;;;1.25;;
2874;SDS011;1445;52.600;13.328;2023-06-22T06:26:07;1.13;;;0.68;;
2874;SDS011;1445;52.600;13.328;2023-06-22T06:28:34;0.77;;;0.77;;
2874;SDS011;1445;52.600;13.328;2023-06-22T06:31:00;2.15;;;1.05;;
2874;SDS011;1445;52.600;13.328;2023-06-22T06:33:25;1.40;;;1.30;;
2874;SDS011;1445;52.600;13.328;2023-06-22T06:35:51;0.93;;;0.80;;
2874;SDS011;1445;52.600;13.328;2023-06-22T06:38:16;0.88;;;0.75;;
2874;SDS011;1445;52.600;13.328;2023-06-22T06:40:42;0.47;;;0.47;;
2874;SDS011;1445;52.600;13.328;2023-06-22T06:43:08;2.80;;;0.95;;
2874;SDS011;1445;52.600;13.328;2023-06-22T06:45:33;0.60;;;0.60;;
2874;SDS011;1445;52.600;13.328;2023-06-22T06:47:59;0.90;;;0.88;;
2874;SDS011;1445;52.600;13.328;2023-06-22T06:50:25;1.55;;;1.45;;
2874;SDS011;1445;52.600;13.328;2023-06-22T06:52:51;0.98;;;0.90;;
2874;SDS011;1445;52.600;13.328;2023-06-22T06:55:16;1.10;;;1.00;;
2874;SDS011;1445;52.600;13.328;2023-06-22T06:57:42;2.65;;;1.10;;
2874;SDS011;1445;52.600;13.328;2023-06-22T07:00:09;0.85;;;0.68;;
2874;SDS011;1445;52.600;13.328;2023-06-22T07:02:38;1.38;;;1.08;;
2874;SDS011;1445;52.600;13.328;2023-06-22T07:05:08;1.30;;;0.90;;
2874;SDS011;1445;52.600;13.328;2023-06-22T07:07:34;1.80;;;1.35;;
2874;SDS011;1445;52.600;13.328;2023-06-22T07:10:00;2.42;;;0.77;;
2874;SDS011;1445;52.600;13.328;2023-06-22T07:12:25;1.33;;;0.90;;
2874;SDS011;1445;52.600;13.328;2023-06-22T07:14:52;1.17;;;1.08;;
2874;SDS011;1445;52.600;13.328;2023-06-22T07:17:18;2.10;;;1.45;;
2874;SDS011;1445;52.600;13.328;2023-06-22T07:19:43;1.58;;;1.20;;
2874;SDS011;1445;52.600;13.328;2023-06-22T07:22:09;1.67;;;1.55;;
2874;SDS011;1445;52.600;13.328;2023-06-22T07:24:34;1.40;;;1.27;;
2874;SDS011;1445;52.600;13.328;2023-06-22T07:27:00;1.48;;;1.02;;
2874;SDS011;1445;52.600;13.328;2023-06-22T07:29:27;0.57;;;0.47;;
2874;SDS011;1445;52.600;13.328;2023-06-22T07:31:53;1.55;;;0.98;;
2874;SDS011;1445;52.600;13.328;2023-06-22T07:34:21;1.17;;;0.80;;
2874;SDS011;1445;52.600;13.328;2023-06-22T07:36:47;1.75;;;1.30;;
2874;SDS011;1445;52.600;13.328;2023-06-22T07:39:13;0.68;;;0.65;;
2874;SDS011;1445;52.600;13.328;2023-06-22T07:41:39;0.80;;;0.60;;
2874;SDS011;1445;52.600;13.328;2023-06-22T07:44:08;1.33;;;0.70;;
2874;SDS011;1445;52.600;13.328;2023-06-22T07:46:34;3.83;;;1.02;;
2874;SDS011;1445;52.600;13.328;2023-06-22T07:48:59;2.53;;;0.90;;
2874;SDS011;1445;52.600;13.328;2023-06-22T07:51:26;1.02;;;0.80;;
2874;SDS011;1445;52.600;13.328;2023-06-22T07:53:52;1.60;;;0.93;;
2874;SDS011;1445;52.600;13.328;2023-06-22T07:56:18;0.57;;;0.57;;
2874;SDS011;1445;52.600;13.328;2023-06-22T07:58:47;0.70;;;0.65;;
2874;SDS011;1445;52.600;13.328;2023-06-22T08:01:16;1.13;;;0.60;;
2874;SDS011;1445;52.600;13.328;2023-06-22T08:03:42;1.20;;;0.82;;
2874;SDS011;1445;52.600;13.328;2023-06-22T08:06:08;0.52;;;0.50;;
2874;SDS011;1445;52.600;13.328;2023-06-22T08:08:35;0.45;;;0.45;;
2874;SDS011;1445;52.600;13.328;2023-06-22T08:11:01;0.88;;;0.60;;
2874;SDS011;1445;52.600;13.328;2023-06-22T08:13:26;1.52;;;1.05;;
2874;SDS011;1445;52.600;13.328;2023-06-22T08:15:52;0.70;;;0.70;;
2874;SDS011;1445;52.600;13.328;2023-06-22T08:18:17;16.55;;;0.70;;
2874;SDS011;1445;52.600;13.328;2023-06-22T08:20:43;1.00;;;0.70;;
2874;SDS011;1445;52.600;13.328;2023-06-22T08:23:08;1.05;;;0.90;;
2874;SDS011;1445;52.600;13.328;2023-06-22T08:25:34;2.22;;;0.65;;
2874;SDS011;1445;52.600;13.328;2023-06-22T08:28:01;0.80;;;0.80;;
2874;SDS011;1445;52.600;13.328;2023-06-22T08:30:30;0.70;;;0.70;;
2874;SDS011;1445;52.600;13.328;2023-06-22T08:32:56;0.82;;;0.70;;
2874;SDS011;1445;52.600;13.328;2023-06-22T08:35:22;0.73;;;0.50;;
2874;SDS011;1445;52.600;13.328;2023-06-22T08:37:48;0.35;;;0.35;;
2874;SDS011;1445;52.600;13.328;2023-06-22T08:40:18;0.50;;;0.50;;
2874;SDS011;1445;52.600;13.328;2023-06-22T08:42:45;0.52;;;0.40;;
2874;SDS011;1445;52.600;13.328;2023-06-22T08:45:11;0.60;;;0.60;;
2874;SDS011;1445;52.600;13.328;2023-06-22T08:47:38;2.00;;;1.15;;
2874;SDS011;1445;52.600;13.328;2023-06-22T08:50:04;0.68;;;0.60;;
2874;SDS011;1445;52.600;13.328;2023-06-22T08:52:30;0.32;;;0.32;;
2874;SDS011;1445;52.600;13.328;2023-06-22T08:54:56;0.40;;;0.40;;
2874;SDS011;1445;52.600;13.328;2023-06-22T08:57:23;1.33;;;0.68;;
2874;SDS011;1445;52.600;13.328;2023-06-22T08:59:49;2.00;;;1.38;;
2874;SDS011;1445;52.600;13.328;2023-06-22T09:02:17;0.82;;;0.82;;
2874;SDS011;1445;52.600;13.328;2023-06-22T09:04:43;0.40;;;0.40;;
2874;SDS011;1445;52.600;13.328;2023-06-22T09:07:08;0.80;;;0.60;;
2874;SDS011;1445;52.600;13.328;2023-06-22T09:09:34;0.50;;;0.50;;
2874;SDS011;1445;52.600;13.328;2023-06-22T09:11:59;4.28;;;1.75;;
2874;SDS011;1445;52.600;13.328;2023-06-22T09:14:25;1.50;;;0.80;;
2874;SDS011;1445;52.600;13.328;2023-06-22T09:16:50;0.75;;;0.75;;
2874;SDS011;1445;52.600;13.328;2023-06-22T09:19:16;0.40;;;0.40;;
2874;SDS011;1445;52.600;13.328;2023-06-22T09:21:42;4.13;;;0.80;;
2874;SDS011;1445;52.600;13.328;2023-06-22T09:24:07;1.83;;;0.63;;
2874;SDS011;1445;52.600;13.328;2023-06-22T09:26:33;1.55;;;0.85;;
2874;SDS011;1445;52.600;13.328;2023-06-22T09:28:59;0.52;;;0.40;;
2874;SDS011;1445;52.600;13.328;2023-06-22T09:31:24;0.60;;;0.60;;
2874;SDS011;1445;52.600;13.328;2023-06-22T09:33:53;0.95;;;0.88;;
2874;SDS011;1445;52.600;13.328;2023-06-22T09:36:20;0.55;;;0.55;;
2874;SDS011;1445;52.600;13.328;2023-06-22T09:38:47;2.28;;;1.10;;
2874;SDS011;1445;52.600;13.328;2023-06-22T09:41:13;0.57;;;0.57;;
2874;SDS011;1445;52.600;13.328;2023-06-22T09:43:38;0.50;;;0.50;;
2874;SDS011;1445;52.600;13.328;2023-06-22T09:46:04;0.63;;;0.63;;
2874;SDS011;1445;52.600;13.328;2023-06-22T09:48:30;0.60;;;0.60;;
2874;SDS011;1445;52.600;13.328;2023-06-22T09:50:56;0.50;;;0.50;;
2874;SDS011;1445;52.600;13.328;2023-06-22T09:53:21;0.65;;;0.52;;
2874;SDS011;1445;52.600;13.328;2023-06-22T09:55:47;1.20;;;0.93;;
2874;SDS011;1445;52.600;13.328;2023-06-22T09:58:12;0.52;;;0.52;;
2874;SDS011;1445;52.600;13.328;2023-06-22T10:00:38;0.85;;;0.65;;
2874;SDS011;1445;52.600;13.328;2023-06-22T10:03:04;0.52;;;0.52;;
2874;SDS011;1445;52.600;13.328;2023-06-22T10:05:29;1.13;;;0.90;;
2874;SDS011;1445;52.600;13.328;2023-06-22T10:07:55;1.48;;;0.82;;
2874;SDS011;1445;52.600;13.328;2023-06-22T10:10:20;1.50;;;0.90;;
2874;SDS011;1445;52.600;13.328;2023-06-22T10:12:46;1.17;;;0.60;;
2874;SDS011;1445;52.600;13.328;2023-06-22T10:15:19;2.15;;;1.05;;
2874;SDS011;1445;52.600;13.328;2023-06-22T10:17:46;1.10;;;0.70;;
2874;SDS011;1445;52.600;13.328;2023-06-22T10:20:12;1.20;;;0.80;;
2874;SDS011;1445;52.600;13.328;2023-06-22T10:22:42;0.63;;;0.60;;
2874;SDS011;1445;52.600;13.328;2023-06-22T10:25:09;0.63;;;0.43;;
2874;SDS011;1445;52.600;13.328;2023-06-22T10:27:37;1.20;;;0.80;;
2874;SDS011;1445;52.600;13.328;2023-06-22T10:30:05;0.80;;;0.73;;
2874;SDS011;1445;52.600;13.328;2023-06-22T10:32:32;1.40;;;1.02;;
2874;SDS011;1445;52.600;13.328;2023-06-22T10:34:58;1.73;;;1.30;;
2874;SDS011;1445;52.600;13.328;2023-06-22T10:37:23;0.85;;;0.80;;
2874;SDS011;1445;52.600;13.328;2023-06-22T10:39:49;1.13;;;0.82;;
2874;SDS011;1445;52.600;13.328;2023-06-22T10:42:14;0.85;;;0.70;;
2874;SDS011;1445;52.600;13.328;2023-06-22T10:44:40;0.65;;;0.63;;
2874;SDS011;1445;52.600;13.328;2023-06-22T10:47:08;1.08;;;0.98;;
2874;SDS011;1445;52.600;13.328;2023-06-22T10:49:33;0.85;;;0.82;;
2874;SDS011;1445;52.600;13.328;2023-06-22T10:51:59;0.75;;;0.75;;
2874;SDS011;1445;52.600;13.328;2023-06-22T10:54:25;0.98;;;0.70;;
2874;SDS011;1445;52.600;13.328;2023-06-22T10:56:50;1.10;;;0.75;;
2874;SDS011;1445;52.600;13.328;2023-06-22T10:59:16;1.23;;;0.70;;
2874;SDS011;1445;52.600;13.328;2023-06-22T11:01:41;0.82;;;0.77;;
2874;SDS011;1445;52.600;13.328;2023-06-22T11:04:07;1.38;;;0.82;;
2874;SDS011;1445;52.600;13.328;2023-06-22T11:06:33;1.35;;;0.98;;
2874;SDS011;1445;52.600;13.328;2023-06-22T11:08:58;0.75;;;0.52;;
2874;SDS011;1445;52.600;13.328;2023-06-22T11:11:25;1.00;;;0.77;;
2874;SDS011;1445;52.600;13.328;2023-06-22T11:13:52;0.90;;;0.60;;
2874;SDS011;1445;52.600;13.328;2023-06-22T11:16:18;1.33;;;0.85;;
2874;SDS011;1445;52.600;13.328;2023-06-22T11:18:43;0.43;;;0.43;;
2874;SDS011;1445;52.600;13.328;2023-06-22T11:21:12;1.13;;;0.93;;
2874;SDS011;1445;52.600;13.328;2023-06-22T11:23:37;1.13;;;0.90;;
2874;SDS011;1445;52.600;13.328;2023-06-22T11:26:03;0.70;;;0.70;;
2874;SDS011;1445;52.600;13.328;2023-06-22T11:28:28;1.08;;;0.70;;
2874;SDS011;1445;52.600;13.328;2023-06-22T11:30:54;0.90;;;0.75;;
2874;SDS011;1445;52.600;13.328;2023-06-22T11:33:19;0.90;;;0.90;;
2874;SDS011;1445;52.600;13.328;2023-06-22T11:35:45;1.05;;;0.88;;
2874;SDS011;1445;52.600;13.328;2023-06-22T11:38:10;1.98;;;0.88;;
2874;SDS011;1445;52.600;13.328;2023-06-22T11:40:36;1.33;;;0.93;;
2874;SDS011;1445;52.600;13.328;2023-06-22T11:43:01;0.70;;;0.70;;
2874;SDS011;1445;52.600;13.328;2023-06-22T11:45:27;1.10;;;1.00;;
2874;SDS011;1445;52.600;13.328;2023-06-22T11:47:53;1.23;;;0.90;;
2874;SDS011;1445;52.600;13.328;2023-06-22T11:50:18;1.17;;;0.70;;
2874;SDS011;1445;52.600;13.328;2023-06-22T11:52:44;1.98;;;0.82;;
2874;SDS011;1445;52.600;13.328;2023-06-22T11:55:10;2.58;;;0.80;;
2874;SDS011;1445;52.600;13.328;2023-06-22T11:57:36;0.68;;;0.68;;
2874;SDS011;1445;52.600;13.328;2023-06-22T12:00:05;0.47;;;0.47;;
2874;SDS011;1445;52.600;13.328;2023-06-22T12:02:39;1.02;;;0.60;;
2874;SDS011;1445;52.600;13.328;2023-06-22T12:05:05;1.10;;;0.93;;
2874;SDS011;1445;52.600;13.328;2023-06-22T12:07:30;0.90;;;0.90;;
2874;SDS011;1445;52.600;13.328;2023-06-22T12:09:56;1.00;;;0.90;;
2874;SDS011;1445;52.600;13.328;2023-06-22T12:12:22;0.60;;;0.60;;
2874;SDS011;1445;52.600;13.328;2023-06-22T12:14:47;0.60;;;0.60;;
2874;SDS011;1445;52.600;13.328;2023-06-22T12:17:13;0.63;;;0.60;;
2874;SDS011;1445;52.600;13.328;2023-06-22T12:19:38;1.65;;;0.75;;
2874;SDS011;1445;52.600;13.328;2023-06-22T12:22:04;0.75;;;0.73;;
2874;SDS011;1445;52.600;13.328;2023-06-22T12:24:29;0.65;;;0.60;;
2874;SDS011;1445;52.600;13.328;2023-06-22T12:26:55;0.57;;;0.52;;
2874;SDS011;1445;52.600;13.328;2023-06-22T12:29:20;1.08;;;0.70;;
2874;SDS011;1445;52.600;13.328;2023-06-22T12:31:46;1.02;;;0.93;;
2874;SDS011;1445;52.600;13.328;2023-06-22T12:34:13;0.80;;;0.80;;
2874;SDS011;1445;52.600;13.328;2023-06-22T12:36:38;0.77;;;0.68;;
2874;SDS011;1445;52.600;13.328;2023-06-22T12:39:04;0.60;;;0.60;;
2874;SDS011;1445;52.600;13.328;2023-06-22T12:41:29;1.58;;;0.95;;
2874;SDS011;1445;52.600;13.328;2023-06-22T12:43:55;1.63;;;1.15;;
2874;SDS011;1445;52.600;13.328;2023-06-22T12:46:20;0.88;;;0.85;;
2874;SDS011;1445;52.600;13.328;2023-06-22T12:48:46;1.35;;;1.15;;
2874;SDS011;1445;52.600;13.328;2023-06-22T12:51:11;2.00;;;1.15;;
2874;SDS011;1445;52.600;13.328;2023-06-22T12:53:37;1.17;;;1.08;;
2874;SDS011;1445;52.600;13.328;2023-06-22T12:56:03;0.73;;;0.60;;
2874;SDS011;1445;52.600;13.328;2023-06-22T12:58:29;1.13;;;0.85;;
2874;SDS011;1445;52.600;13.328;2023-06-22T13:00:54;0.75;;;0.75;;
2874;SDS011;1445;52.600;13.328;2023-06-22T13:03:20;2.58;;;0.90;;
2874;SDS011;1445;52.600;13.328;2023-06-22T13:05:45;1.20;;;1.00;;
2874;SDS011;1445;52.600;13.328;2023-06-22T13:08:11;0.95;;;0.65;;
2874;SDS011;1445;52.600;13.328;2023-06-22T13:10:36;1.40;;;1.10;;
2874;SDS011;1445;52.600;13.328;2023-06-22T13:13:02;1.70;;;0.88;;
2874;SDS011;1445;52.600;13.328;2023-06-22T13:15:28;2.30;;;0.73;;
2874;SDS011;1445;52.600;13.328;2023-06-22T13:17:54;0.68;;;0.68;;
2874;SDS011;1445;52.600;13.328;2023-06-22T13:20:20;0.75;;;0.70;;
2874;SDS011;1445;52.600;13.328;2023-06-22T13:22:46;1.40;;;1.00;;
2874;SDS011;1445;52.600;13.328;2023-06-22T13:25:11;2.08;;;1.00;;
2874;SDS011;1445;52.600;13.328;2023-06-22T13:27:38;1.00;;;0.90;;
2874;SDS011;1445;52.600;13.328;2023-06-22T13:30:05;0.77;;;0.70;;
2874;SDS011;1445;52.600;13.328;2023-06-22T13:32:31;0.65;;;0.60;;
2874;SDS011;1445;52.600;13.328;2023-06-22T13:34:57;1.15;;;1.00;;
2874;SDS011;1445;52.600;13.328;2023-06-22T13:37:23;1.20;;;0.95;;
2874;SDS011;1445;52.600;13.328;2023-06-22T13:39:49;1.02;;;0.68;;
2874;SDS011;1445;52.600;13.328;2023-06-22T13:42:14;2.17;;;1.30;;
2874;SDS011;1445;52.600;13.328;2023-06-22T13:44:42;1.33;;;0.88;;
2874;SDS011;1445;52.600;13.328;2023-06-22T13:47:08;1.30;;;1.20;;
2874;SDS011;1445;52.600;13.328;2023-06-22T13:49:33;1.75;;;1.45;;
2874;SDS011;1445;52.600;13.328;2023-06-22T13:51:59;1.42;;;0.90;;
2874;SDS011;1445;52.600;13.328;2023-06-22T13:54:25;1.00;;;0.90;;
2874;SDS011;1445;52.600;13.328;2023-06-22T13:56:50;1.92;;;1.23;;
2874;SDS011;1445;52.600;13.328;2023-06-22T13:59:16;0.85;;;0.85;;
2874;SDS011;1445;52.600;13.328;2023-06-22T14:01:41;1.08;;;0.95;;
2874;SDS011;1445;52.600;13.328;2023-06-22T14:04:08;1.02;;;0.93;;
2874;SDS011;1445;52.600;13.328;2023-06-22T14:06:35;2.22;;;1.00;;
2874;SDS011;1445;52.600;13.328;2023-06-22T14:09:00;1.25;;;0.98;;
2874;SDS011;1445;52.600;13.328;2023-06-22T14:11:26;1.08;;;0.68;;
2874;SDS011;1445;52.600;13.328;2023-06-22T14:13:51;1.05;;;0.57;;
2874;SDS011;1445;52.600;13.328;2023-06-22T14:16:17;0.60;;;0.60;;
2874;SDS011;1445;52.600;13.328;2023-06-22T14:18:44;0.98;;;0.90;;
2874;SDS011;1445;52.600;13.328;2023-06-22T14:21:10;1.30;;;0.93;;
2874;SDS011;1445;52.600;13.328;2023-06-22T14:23:35;1.50;;;0.85;;
2874;SDS011;1445;52.600;13.328;2023-06-22T14:26:02;2.35;;;0.85;;
2874;SDS011;1445;52.600;13.328;2023-06-22T14:28:28;2.28;;;1.00;;
2874;SDS011;1445;52.600;13.328;2023-06-22T14:30:53;1.13;;;0.88;;
2874;SDS011;1445;52.600;13.328;2023-06-22T14:33:19;0.80;;;0.80;;
2874;SDS011;1445;52.600;13.328;2023-06-22T14:35:44;1.30;;;0.90;;
2874;SDS011;1445;52.600;13.328;2023-06-22T14:38:10;1.30;;;0.93;;
2874;SDS011;1445;52.600;13.328;2023-06-22T14:40:35;1.58;;;1.10;;
2874;SDS011;1445;52.600;13.328;2023-06-22T14:43:01;1.33;;;1.00;;
2874;SDS011;1445;52.600;13.328;2023-06-22T14:45:26;1.70;;;1.08;;
2874;SDS011;1445;52.600;13.328;2023-06-22T14:47:52;5.47;;;1.45;;
2874;SDS011;1445;52.600;13.328;2023-06-22T14:50:18;2.03;;;1.50;;
2874;SDS011;1445;52.600;13.328;2023-06-22T14:52:47;1.02;;;0.93;;
2874;SDS011;1445;52.600;13.328;2023-06-22T14:55:15;1.02;;;0.93;;
2874;SDS011;1445;52.600;13.328;2023-06-22T14:57:43;1.48;;;1.27;;
2874;SDS011;1445;52.600;13.328;2023-06-22T15:00:09;0.90;;;0.75;;
2874;SDS011;1445;52.600;13.328;2023-06-22T15:02:41;1.30;;;1.08;;
2874;SDS011;1445;52.600;13.328;2023-06-22T15:07:32;1.08;;;0.98;;